createdAt,value
2018-06-22T00:00:56.973Z,13.20
2018-06-22T00:03:25.033Z,13.20
2018-06-22T00:05:53.129Z,13.10
2018-06-22T00:08:21.185Z,13.10
2018-06-22T00:10:49.253Z,13.10
2018-06-22T00:13:17.320Z,13.10
2018-06-22T00:15:45.400Z,13.10
2018-06-22T00:18:13.452Z,13.10
2018-06-22T00:20:41.560Z,13.00
2018-06-22T00:23:09.613Z,13.00
2018-06-22T00:25:37.676Z,13.10
2018-06-22T00:28:05.736Z,13.00
2018-06-22T00:30:33.817Z,13.00
2018-06-22T00:33:01.874Z,12.90
2018-06-22T00:35:29.944Z,12.90
2018-06-22T00:37:58.120Z,13.00
2018-06-22T00:40:26.169Z,13.00
2018-06-22T00:42:54.200Z,12.90
2018-06-22T00:45:22.281Z,12.80
2018-06-22T00:47:50.441Z,12.80
2018-06-22T00:50:18.490Z,12.80
2018-06-22T00:52:46.553Z,12.80
2018-06-22T00:55:14.614Z,12.60
2018-06-22T00:57:42.684Z,12.60
2018-06-22T01:00:10.736Z,12.60
2018-06-22T01:05:06.765Z,12.60
2018-06-22T01:07:34.857Z,12.70
2018-06-22T01:10:02.937Z,12.60
2018-06-22T01:12:31.029Z,12.50
2018-06-22T01:14:59.104Z,12.40
2018-06-22T01:17:27.200Z,12.40
2018-06-22T01:19:55.281Z,12.40
2018-06-22T01:22:23.390Z,12.40
2018-06-22T01:24:51.436Z,12.40
2018-06-22T01:27:19.516Z,12.50
2018-06-22T01:29:47.592Z,12.50
2018-06-22T01:32:15.676Z,12.50
2018-06-22T01:34:43.753Z,12.40
2018-06-22T01:37:11.845Z,12.40
2018-06-22T01:39:39.919Z,12.30
2018-06-22T01:42:08.000Z,12.30
2018-06-22T01:44:36.080Z,12.20
2018-06-22T01:47:04.168Z,12.20
2018-06-22T01:49:32.252Z,12.10
2018-06-22T01:52:00.337Z,12.10
2018-06-22T01:54:28.433Z,12.00
2018-06-22T01:56:56.608Z,11.90
2018-06-22T01:59:24.697Z,11.80
2018-06-22T02:01:52.769Z,11.90
2018-06-22T02:04:20.865Z,11.80
2018-06-22T02:06:48.945Z,11.80
2018-06-22T02:09:17.034Z,11.70
2018-06-22T02:11:45.118Z,11.70
2018-06-22T02:14:13.200Z,11.60
2018-06-22T02:16:41.281Z,11.60
2018-06-22T02:19:09.369Z,11.60
2018-06-22T02:21:37.452Z,11.60
2018-06-22T02:24:05.669Z,11.60
2018-06-22T02:26:33.748Z,11.50
2018-06-22T02:29:01.846Z,11.50
2018-06-22T02:31:29.913Z,11.50
2018-06-22T02:33:58.013Z,11.50
2018-06-22T02:36:26.097Z,11.50
2018-06-22T02:38:54.181Z,11.40
2018-06-22T02:41:22.742Z,11.40
2018-06-22T02:43:50.823Z,11.40
2018-06-22T02:46:18.912Z,11.40
2018-06-22T02:48:47.200Z,11.40
2018-06-22T02:51:15.297Z,11.40
2018-06-22T02:53:43.377Z,11.40
2018-06-22T02:56:11.460Z,11.40
2018-06-22T02:58:39.561Z,11.40
2018-06-22T03:01:07.642Z,11.40
2018-06-22T03:03:35.722Z,11.40
2018-06-22T03:06:03.805Z,11.30
2018-06-22T03:08:31.878Z,11.30
2018-06-22T03:10:59.960Z,11.30
2018-06-22T03:13:28.033Z,11.30
2018-06-22T03:15:56.077Z,11.30
2018-06-22T03:18:24.105Z,11.30
2018-06-22T03:20:52.157Z,11.30
2018-06-22T03:23:20.198Z,11.20
2018-06-22T03:25:48.235Z,11.20
2018-06-22T03:28:16.273Z,11.30
2018-06-22T03:30:44.321Z,11.20
2018-06-22T03:33:12.362Z,11.20
2018-06-22T03:35:40.409Z,11.30
2018-06-22T03:38:08.472Z,11.30
2018-06-22T03:40:36.545Z,11.30
2018-06-22T03:43:04.709Z,11.30
2018-06-22T03:45:32.776Z,11.30
2018-06-22T03:48:00.849Z,11.30
2018-06-22T03:50:28.905Z,11.30
2018-06-22T03:52:57.082Z,11.30
2018-06-22T03:55:25.192Z,11.40
2018-06-22T03:57:53.385Z,11.40
2018-06-22T04:00:21.661Z,11.30
2018-06-22T04:02:49.737Z,11.30
2018-06-22T04:05:17.804Z,11.30
2018-06-22T04:07:45.860Z,11.20
2018-06-22T04:10:13.909Z,11.20
2018-06-22T04:12:41.985Z,11.20
2018-06-22T04:15:10.139Z,11.10
2018-06-22T04:17:54.649Z,10.90
2018-06-22T04:20:23.856Z,10.90
2018-06-22T04:22:52.414Z,11.00
2018-06-22T04:25:21.672Z,11.00
2018-06-22T04:27:50.472Z,10.90
2018-06-22T04:30:18.754Z,10.90
2018-06-22T04:32:47.557Z,10.90
2018-06-22T04:35:15.841Z,10.90
2018-06-22T04:37:43.934Z,10.90
2018-06-22T04:40:11.991Z,11.00
2018-06-22T04:42:40.062Z,11.10
2018-06-22T04:45:08.120Z,11.20
2018-06-22T04:47:36.240Z,11.30
2018-06-22T04:50:04.269Z,11.30
2018-06-22T04:52:32.441Z,11.50
2018-06-22T04:55:00.520Z,11.50
2018-06-22T04:57:28.588Z,11.40
2018-06-22T04:59:56.644Z,11.40
2018-06-22T05:02:24.709Z,11.50
2018-06-22T05:04:52.790Z,11.60
2018-06-22T05:07:20.849Z,11.60
2018-06-22T05:09:48.908Z,11.70
2018-06-22T05:12:16.960Z,11.80
2018-06-22T05:14:45.023Z,11.90
2018-06-22T05:17:13.073Z,12.00
2018-06-22T05:19:41.144Z,12.10
2018-06-22T05:22:09.208Z,12.10
2018-06-22T05:24:37.272Z,12.20
2018-06-22T05:27:05.329Z,12.30
2018-06-22T05:29:33.612Z,12.40
2018-06-22T05:32:01.673Z,12.50
2018-06-22T05:34:30.797Z,12.70
2018-06-22T05:36:58.842Z,12.80
2018-06-22T05:39:26.887Z,12.90
2018-06-22T05:41:54.941Z,12.90
2018-06-22T05:44:22.981Z,12.90
2018-06-22T05:46:51.033Z,12.90
2018-06-22T05:49:19.068Z,13.00
2018-06-22T05:51:47.109Z,13.10
2018-06-22T05:54:15.154Z,13.10
2018-06-22T05:56:43.226Z,13.20
2018-06-22T05:59:11.245Z,13.30
2018-06-22T06:01:39.305Z,13.40
2018-06-22T06:04:07.340Z,13.60
2018-06-22T06:06:35.409Z,13.60
2018-06-22T06:09:04.025Z,13.70
2018-06-22T06:11:32.069Z,13.80
2018-06-22T06:14:00.101Z,14.00
2018-06-22T06:16:28.146Z,14.00
2018-06-22T06:18:56.185Z,14.10
2018-06-22T06:21:24.220Z,14.10
2018-06-22T06:23:52.260Z,14.10
2018-06-22T06:26:20.305Z,14.10
2018-06-22T06:28:48.341Z,14.30
2018-06-22T06:31:16.388Z,14.80
2018-06-22T06:33:44.432Z,15.60
2018-06-22T06:36:12.491Z,16.60
2018-06-22T06:38:40.553Z,17.90
2018-06-22T06:41:08.774Z,19.20
2018-06-22T06:43:36.846Z,20.60
2018-06-22T06:46:05.045Z,21.80
2018-06-22T06:48:33.108Z,22.50
2018-06-22T06:51:01.172Z,23.00
2018-06-22T06:53:30.045Z,22.50
2018-06-22T06:55:58.104Z,21.80
2018-06-22T06:58:26.172Z,21.00
2018-06-22T07:00:54.237Z,20.50
2018-06-22T07:05:50.225Z,19.60
2018-06-22T07:08:18.288Z,19.10
2018-06-22T07:10:46.416Z,18.80
2018-06-22T07:13:14.490Z,18.40
2018-06-22T07:15:42.684Z,18.10
2018-06-22T07:18:10.877Z,17.90
2018-06-22T07:20:39.056Z,17.70
2018-06-22T07:23:07.765Z,17.40
2018-06-22T07:25:35.829Z,17.20
2018-06-22T07:28:03.888Z,17.00
2018-06-22T07:30:31.976Z,16.90
2018-06-22T07:33:00.004Z,16.80
2018-06-22T07:35:28.075Z,16.90
2018-06-22T07:37:56.220Z,17.10
2018-06-22T07:40:24.293Z,17.20
2018-06-22T07:42:52.344Z,17.20
2018-06-22T07:45:20.418Z,17.10
2018-06-22T07:47:48.485Z,17.00
2018-06-22T07:50:16.565Z,16.80
2018-06-22T07:52:44.616Z,16.80
2018-06-22T07:55:12.677Z,16.60
2018-06-22T07:57:40.745Z,16.50
2018-06-22T08:00:08.806Z,16.40
2018-06-22T08:02:36.861Z,16.30
2018-06-22T08:05:05.208Z,16.20
2018-06-22T08:07:33.265Z,16.10
2018-06-22T08:10:02.200Z,16.00
2018-06-22T08:12:30.276Z,16.00
2018-06-22T08:14:58.356Z,16.10
2018-06-22T08:17:26.417Z,16.20
2018-06-22T08:19:54.493Z,16.20
2018-06-22T08:22:22.553Z,16.30
2018-06-22T08:24:50.615Z,16.30
2018-06-22T08:27:18.722Z,16.30
2018-06-22T08:29:46.761Z,16.10
2018-06-22T08:32:14.821Z,15.90
2018-06-22T08:34:42.888Z,15.90
2018-06-22T08:37:10.976Z,15.80
2018-06-22T08:39:39.025Z,15.70
2018-06-22T08:42:07.130Z,15.50
2018-06-22T08:44:35.192Z,15.60
2018-06-22T08:47:03.248Z,15.50
2018-06-22T08:49:31.444Z,15.40
2018-06-22T08:51:59.629Z,15.50
2018-06-22T08:54:27.709Z,15.50
2018-06-22T08:56:55.778Z,15.40
2018-06-22T08:59:23.857Z,15.40
2018-06-22T09:01:51.918Z,15.40
2018-06-22T09:04:19.981Z,15.40
2018-06-22T09:06:48.045Z,15.50
2018-06-22T09:09:16.105Z,15.50
2018-06-22T09:11:44.233Z,15.50
2018-06-22T09:14:12.284Z,15.50
2018-06-22T09:16:40.361Z,15.50
2018-06-22T09:19:08.441Z,15.50
2018-06-22T09:21:36.509Z,15.50
2018-06-22T09:24:04.577Z,15.50
2018-06-22T09:26:32.641Z,15.50
2018-06-22T09:29:00.701Z,15.70
2018-06-22T09:31:28.769Z,15.80
2018-06-22T09:33:56.828Z,15.80
2018-06-22T09:36:24.946Z,15.90
2018-06-22T09:38:53.036Z,16.00
2018-06-22T09:41:21.096Z,16.00
2018-06-22T09:43:49.200Z,16.00
2018-06-22T09:46:17.301Z,16.00
2018-06-22T09:48:45.580Z,16.00
2018-06-22T09:51:13.635Z,16.00
2018-06-22T09:53:41.689Z,16.00
2018-06-22T09:56:09.749Z,16.10
2018-06-22T10:01:12.356Z,16.40
2018-06-22T10:03:40.415Z,16.30
2018-06-22T10:06:08.510Z,16.40
2018-06-22T10:08:36.590Z,16.60
2018-06-22T10:11:04.644Z,16.70
2018-06-22T10:13:32.747Z,16.90
2018-06-22T10:16:00.777Z,17.10
2018-06-22T10:18:28.833Z,17.40
2018-06-22T10:20:56.972Z,17.50
2018-06-22T10:23:25.029Z,17.60
2018-06-22T10:25:53.084Z,17.80
2018-06-22T10:28:21.136Z,17.80
2018-06-22T10:30:49.201Z,17.80
2018-06-22T10:33:17.332Z,17.80
2018-06-22T10:35:45.380Z,17.80
2018-06-22T10:38:13.433Z,17.80
2018-06-22T10:40:41.510Z,17.70
2018-06-22T10:43:09.581Z,17.80
2018-06-22T10:45:37.640Z,18.00
2018-06-22T10:48:05.721Z,18.30
2018-06-22T10:50:33.789Z,18.60
2018-06-22T10:53:01.851Z,18.70
2018-06-22T10:55:29.921Z,18.90
2018-06-22T10:57:57.980Z,18.90
2018-06-22T11:00:26.057Z,19.00
2018-06-22T11:02:54.124Z,19.10
2018-06-22T11:05:22.200Z,19.40
2018-06-22T11:07:50.273Z,19.60
2018-06-22T11:10:18.340Z,19.60
2018-06-22T11:12:46.496Z,19.60
2018-06-22T11:15:14.558Z,19.40
2018-06-22T11:17:42.617Z,19.30
2018-06-22T11:20:10.677Z,19.10
2018-06-22T11:22:38.745Z,19.30
2018-06-22T11:25:06.917Z,19.50
2018-06-22T11:27:34.990Z,19.50
2018-06-22T11:30:03.065Z,19.60
2018-06-22T11:32:31.138Z,19.50
2018-06-22T11:34:59.197Z,20.20
2018-06-22T11:37:27.270Z,21.00
2018-06-22T11:39:55.327Z,21.80
2018-06-22T11:42:23.398Z,22.20
2018-06-22T11:44:51.455Z,22.30
2018-06-22T11:47:19.529Z,22.60
2018-06-22T11:49:47.580Z,22.70
2018-06-22T11:52:15.644Z,22.70
2018-06-22T11:54:43.841Z,22.80
2018-06-22T11:57:11.905Z,22.80
2018-06-22T11:59:40.110Z,22.80
2018-06-22T12:02:08.181Z,22.90
2018-06-22T12:04:36.273Z,23.30
2018-06-22T12:07:04.331Z,23.70
2018-06-22T12:09:32.385Z,23.70
2018-06-22T12:12:00.473Z,23.30
2018-06-22T12:14:28.533Z,23.00
2018-06-22T12:16:56.585Z,22.50
2018-06-22T12:19:24.825Z,22.40
2018-06-22T12:21:52.708Z,22.30
2018-06-22T12:24:20.776Z,22.10
2018-06-22T12:26:48.852Z,21.90
2018-06-22T12:29:16.912Z,21.90
2018-06-22T12:31:44.969Z,22.00
2018-06-22T12:34:13.033Z,22.00
2018-06-22T12:36:41.126Z,22.20
2018-06-22T12:41:38.576Z,22.20
2018-06-22T12:44:06.664Z,22.10
2018-06-22T12:46:35.212Z,22.20
2018-06-22T12:49:03.285Z,22.30
2018-06-22T12:51:31.356Z,22.50
2018-06-22T12:53:59.429Z,22.60
2018-06-22T12:56:27.520Z,22.50
2018-06-22T12:58:55.609Z,22.60
2018-06-22T13:01:23.896Z,23.00
2018-06-22T13:03:52.924Z,23.20
2018-06-22T13:06:20.969Z,23.20
2018-06-22T13:08:49.024Z,23.10
2018-06-22T13:11:17.100Z,23.10
2018-06-22T13:13:45.152Z,23.20
2018-06-22T13:16:13.400Z,23.30
2018-06-22T13:18:41.689Z,23.40
2018-06-22T13:21:09.744Z,23.40
2018-06-22T13:23:44.334Z,23.10
2018-06-22T13:26:12.402Z,22.80
2018-06-22T13:28:40.444Z,22.80
2018-06-22T13:31:08.512Z,22.70
2018-06-22T13:33:36.575Z,22.60
2018-06-22T13:36:04.631Z,22.50
2018-06-22T13:38:39.084Z,22.40
2018-06-22T13:41:07.149Z,22.50
2018-06-22T13:43:35.266Z,22.60
2018-06-22T13:46:03.265Z,22.50
2018-06-22T13:48:31.317Z,22.50
2018-06-22T13:50:59.901Z,22.30
2018-06-22T13:53:27.962Z,22.00
2018-06-22T13:55:56.031Z,22.00
2018-06-22T13:58:24.104Z,22.00
2018-06-22T14:00:52.175Z,22.20
2018-06-22T14:03:20.228Z,22.30
2018-06-22T14:05:53.792Z,22.10
2018-06-22T14:08:21.869Z,21.90
2018-06-22T14:10:49.911Z,22.10
2018-06-22T14:13:17.996Z,22.20
2018-06-22T14:15:46.066Z,22.30
2018-06-22T14:18:14.181Z,22.40
2018-06-22T14:20:42.241Z,22.40
2018-06-22T14:23:10.306Z,22.50
2018-06-22T14:25:38.360Z,22.80
2018-06-22T14:28:06.429Z,23.20
2018-06-22T14:30:34.485Z,23.30
2018-06-22T14:33:02.568Z,23.50
2018-06-22T14:35:30.625Z,23.60
2018-06-22T14:37:58.697Z,23.60
2018-06-22T14:40:26.754Z,23.70
2018-06-22T14:42:54.824Z,23.90
2018-06-22T14:45:22.902Z,23.90
2018-06-22T14:47:50.997Z,23.70
2018-06-22T14:50:19.053Z,23.40
2018-06-22T14:52:47.852Z,23.10
2018-06-22T14:55:21.384Z,23.20
2018-06-22T14:57:54.889Z,23.20
2018-06-22T15:00:28.344Z,23.30
2018-06-22T15:03:01.716Z,23.10
2018-06-22T15:05:35.320Z,23.00
2018-06-22T15:08:05.043Z,23.00
2018-06-22T15:10:33.102Z,22.90
2018-06-22T15:13:01.169Z,22.60
2018-06-22T15:15:29.228Z,22.30
2018-06-22T15:17:57.284Z,22.20
2018-06-22T15:20:25.354Z,22.10
2018-06-22T15:22:53.410Z,22.20
2018-06-22T15:25:21.492Z,22.30
2018-06-22T15:27:49.564Z,22.20
2018-06-22T15:30:17.673Z,22.10
2018-06-22T15:32:45.732Z,22.00
2018-06-22T15:35:19.019Z,21.80
2018-06-22T15:37:52.585Z,21.70
2018-06-22T15:40:26.026Z,21.60
2018-06-22T15:44:02.404Z,21.60
2018-06-22T15:46:35.985Z,21.30
2018-06-22T15:49:09.424Z,21.30
2018-06-22T15:51:42.940Z,21.60
2018-06-22T15:54:16.435Z,21.90
2018-06-22T15:56:44.472Z,22.10
2018-06-22T15:59:12.512Z,22.10
2018-06-22T16:01:40.554Z,22.10
2018-06-22T16:04:11.043Z,21.70
2018-06-22T16:06:39.176Z,21.80
2018-06-22T16:09:08.472Z,21.60
2018-06-22T16:11:36.804Z,21.60
2018-06-22T16:14:11.325Z,21.50
2018-06-22T16:16:44.740Z,21.60
2018-06-22T16:21:51.728Z,21.70
2018-06-22T16:24:25.316Z,21.70
2018-06-22T16:26:58.738Z,21.70
2018-06-22T16:29:26.772Z,21.60
2018-06-22T16:31:55.249Z,21.40
2018-06-22T16:34:23.313Z,21.20
2018-06-22T16:36:51.365Z,20.90
2018-06-22T16:39:19.547Z,20.90
2018-06-22T16:41:47.630Z,20.90
2018-06-22T16:44:15.644Z,20.70
2018-06-22T16:46:43.695Z,20.60
2018-06-22T16:49:11.856Z,20.50
2018-06-22T16:51:39.959Z,20.40
2018-06-22T16:54:07.937Z,20.30
2018-06-22T16:56:36.181Z,20.20
2018-06-22T16:59:04.852Z,20.30
2018-06-22T17:01:33.080Z,20.20
2018-06-22T17:04:01.097Z,20.20
2018-06-22T17:06:34.686Z,20.20
2018-06-22T17:09:08.798Z,20.30
2018-06-22T17:11:42.431Z,20.40
2018-06-22T17:14:16.013Z,20.50
2018-06-22T17:16:49.525Z,20.40
2018-06-22T17:19:22.225Z,20.50
2018-06-22T17:21:50.461Z,20.50
2018-06-22T17:24:18.563Z,20.60
2018-06-22T17:26:47.313Z,20.50
2018-06-22T17:29:15.370Z,20.60
2018-06-22T17:31:43.420Z,20.50
2018-06-22T17:34:11.470Z,20.30
2018-06-22T17:36:39.516Z,20.40
2018-06-22T17:39:09.447Z,20.30
2018-06-22T17:41:38.791Z,20.30
2018-06-22T17:44:07.257Z,20.30
2018-06-22T17:46:35.440Z,20.20
2018-06-22T17:49:03.532Z,20.00
2018-06-22T17:51:31.596Z,20.00
2018-06-22T17:53:59.628Z,19.80
2018-06-22T17:56:30.583Z,19.70
2018-06-22T17:59:04.134Z,19.60
2018-06-22T18:01:37.725Z,19.60
2018-06-22T18:04:11.217Z,19.50
2018-06-22T18:06:45.289Z,19.50
2018-06-22T18:09:18.797Z,19.50
2018-06-22T18:12:50.076Z,19.40
2018-06-22T18:15:18.792Z,19.40
2018-06-22T18:17:46.968Z,19.30
2018-06-22T18:20:15.442Z,19.30
2018-06-22T18:22:43.683Z,19.20
2018-06-22T18:25:12.261Z,19.20
2018-06-22T18:27:40.323Z,19.20
2018-06-22T18:30:13.857Z,19.10
2018-06-22T18:32:41.937Z,19.10
2018-06-22T18:35:11.362Z,19.00
2018-06-22T18:37:39.470Z,19.00
2018-06-22T18:40:08.280Z,18.90
2018-06-22T18:42:36.909Z,19.00
2018-06-22T18:45:06.301Z,19.00
2018-06-22T18:47:34.363Z,19.00
2018-06-22T18:50:02.500Z,18.80
2018-06-22T18:52:36.195Z,18.80
2018-06-22T18:55:09.705Z,18.80
2018-06-22T18:57:43.326Z,18.80
2018-06-22T19:00:17.003Z,18.70
2018-06-22T19:02:50.490Z,18.70
2018-06-22T19:05:18.600Z,18.70
2018-06-22T19:07:46.761Z,18.60
2018-06-22T19:10:15.014Z,18.60
2018-06-22T19:12:43.145Z,18.50
2018-06-22T19:15:11.275Z,18.40
2018-06-22T19:20:08.869Z,18.30
2018-06-22T19:22:36.993Z,18.10
2018-06-22T19:25:05.085Z,18.00
2018-06-22T19:27:33.186Z,17.90
2018-06-22T19:30:01.621Z,17.70
2018-06-22T19:32:29.738Z,17.60
2018-06-22T19:35:03.210Z,17.50
2018-06-22T19:37:31.786Z,17.50
2018-06-22T19:40:00.954Z,17.30
2018-06-22T19:42:29.382Z,17.30
2018-06-22T19:45:02.778Z,17.20
2018-06-22T19:47:36.253Z,17.10
2018-06-22T19:50:09.741Z,17.10
2018-06-22T19:52:43.219Z,17.00
2018-06-22T19:55:11.282Z,16.90
2018-06-22T19:57:39.333Z,16.80
2018-06-22T20:00:07.384Z,16.70
2018-06-22T20:02:35.456Z,16.50
2018-06-22T20:05:03.510Z,16.40
2018-06-22T20:07:31.557Z,16.30
2018-06-22T20:09:59.601Z,16.20
2018-06-22T20:12:27.648Z,16.20
2018-06-22T20:14:55.704Z,16.10
2018-06-22T20:17:23.776Z,16.10
2018-06-22T20:19:51.830Z,16.00
2018-06-22T20:22:19.876Z,15.80
2018-06-22T20:24:53.332Z,15.80
2018-06-22T20:27:21.386Z,15.70
2018-06-22T20:29:49.428Z,15.60
2018-06-22T20:32:17.461Z,15.50
2018-06-22T20:34:50.885Z,15.40
2018-06-22T20:37:24.348Z,15.40
2018-06-22T20:39:57.709Z,15.30
2018-06-22T20:42:31.217Z,15.30
2018-06-22T20:45:04.628Z,15.30
2018-06-22T20:47:38.025Z,15.30
2018-06-22T20:50:11.565Z,15.20
2018-06-22T20:52:39.597Z,15.20
2018-06-22T20:55:07.653Z,15.20
2018-06-22T20:57:35.705Z,15.30
2018-06-22T21:00:03.757Z,15.20
2018-06-22T21:02:31.804Z,15.20
2018-06-22T21:04:59.856Z,15.10
2018-06-22T21:07:27.900Z,15.10
2018-06-22T21:09:55.948Z,15.10
2018-06-22T21:12:26.255Z,15.10
2018-06-22T21:14:52.021Z,15.10
2018-06-22T21:17:20.188Z,15.00
2018-06-22T21:19:48.690Z,15.00
2018-06-22T21:22:16.730Z,15.00
2018-06-22T21:24:44.777Z,15.00
2018-06-22T21:27:18.383Z,14.90
2018-06-22T21:29:51.702Z,14.90
2018-06-22T21:32:25.101Z,14.90
2018-06-22T21:34:58.548Z,14.80
2018-06-22T21:37:32.027Z,14.80
2018-06-22T21:40:00.157Z,14.70
2018-06-22T21:42:28.140Z,14.70
2018-06-22T21:47:24.112Z,14.70
2018-06-22T21:49:52.168Z,14.60
2018-06-22T21:52:20.247Z,14.60
2018-06-22T21:54:48.296Z,14.60
2018-06-22T21:57:16.356Z,14.70
2018-06-22T21:59:44.464Z,14.70
2018-06-22T22:02:12.521Z,14.60
2018-06-22T22:04:40.607Z,14.60
2018-06-22T22:07:08.659Z,14.60
2018-06-22T22:09:42.220Z,14.50
2018-06-22T22:12:10.658Z,14.50
2018-06-22T22:14:39.209Z,14.50
2018-06-22T22:17:07.514Z,14.40
2018-06-22T22:19:35.688Z,14.40
2018-06-22T22:22:03.753Z,14.30
2018-06-22T22:24:31.816Z,14.30
2018-06-22T22:26:59.876Z,14.20
2018-06-22T22:29:27.953Z,14.20
2018-06-22T22:31:56.025Z,14.20
2018-06-22T22:34:24.100Z,14.00
2018-06-22T22:36:52.144Z,14.00
2018-06-22T22:39:20.220Z,13.90
2018-06-22T22:41:48.273Z,13.70
2018-06-22T22:44:16.317Z,13.70
2018-06-22T22:46:44.403Z,13.60
2018-06-22T22:49:12.406Z,13.60
2018-06-22T22:51:40.445Z,13.50
2018-06-22T22:54:08.492Z,13.50
2018-06-22T22:56:36.536Z,13.40
2018-06-22T22:59:04.605Z,13.30
2018-06-22T23:01:32.655Z,13.20
2018-06-22T23:04:00.703Z,13.20
2018-06-22T23:06:28.736Z,13.10
2018-06-22T23:08:56.823Z,13.10
2018-06-22T23:13:52.701Z,12.90
2018-06-22T23:16:20.744Z,12.90
2018-06-22T23:18:48.801Z,12.80
2018-06-22T23:21:16.838Z,12.70
2018-06-22T23:23:44.876Z,12.70
2018-06-22T23:26:12.918Z,12.70
2018-06-22T23:28:40.980Z,12.60
2018-06-22T23:31:09.030Z,12.60
2018-06-22T23:33:37.081Z,12.60
2018-06-22T23:36:05.496Z,12.60
2018-06-22T23:38:34.102Z,12.50
2018-06-22T23:41:02.145Z,12.50
2018-06-22T23:43:31.545Z,12.50
2018-06-22T23:45:59.581Z,12.40
2018-06-22T23:48:27.630Z,12.40
2018-06-22T23:50:55.688Z,12.40
2018-06-22T23:53:23.717Z,12.30
2018-06-22T23:55:51.756Z,12.40
2018-06-22T23:58:19.809Z,12.40
